Time;durP1;ratioP1;P1;durP2;ratioP2;P2;SDS_P1;SDS_P2;PMS_P1;PMS_P2;Temp;Humidity;BMP_temperature;BMP_pressure;BME280_temperature;BME280_humidity;BME280_pressure;Samples;Min_cycle;Max_cycle;Signal;HPM_P1;HPM_P2
2022/09/10 00:01:29;;;;;;;2.90;1.67;;;;;;;15.30;99.39;99106.88;8376387;28;20057;-82
2022/09/10 00:05:38;;;;;;;6.15;1.80;;;;;;;15.36;99.20;99108.25;8378617;28;20102;-82
2022/09/10 00:09:39;;;;;;;5.90;1.90;;;;;;;15.40;99.13;99111.88;8371079;28;20539;-81
2022/09/10 00:13:40;;;;;;;4.78;1.98;;;;;;;15.40;99.16;99109.16;8375710;28;20074;-80
2022/09/10 00:17:41;;;;;;;3.53;2.10;;;;;;;15.39;100.00;99091.22;8375313;28;20140;-83
2022/09/10 00:21:46;;;;;;;6.00;1.80;;;;;;;15.39;100.00;99099.41;8362679;28;20040;-80
2022/09/10 00:25:48;;;;;;;3.03;1.48;;;;;;;15.38;100.00;99092.38;8384670;28;20421;-82
2022/09/10 00:29:53;;;;;;;4.28;1.70;;;;;;;15.37;100.00;99098.97;8335445;28;20049;-81
2022/09/10 00:33:54;;;;;;;4.43;1.70;;;;;;;15.39;100.00;99104.03;8371368;28;20049;-81
2022/09/10 00:37:55;;;;;;;3.13;1.48;;;;;;;15.38;100.00;99103.28;8369460;28;20049;-82
2022/09/10 00:41:57;;;;;;;3.97;1.58;;;;;;;15.36;100.00;99100.09;8375721;28;20047;-81
2022/09/10 00:45:58;;;;;;;6.07;1.60;;;;;;;15.38;100.00;99097.84;8377705;28;20040;-82
2022/09/10 00:50:04;;;;;;;4.25;2.30;;;;;;;15.40;100.00;99106.44;8382512;28;20037;-83
2022/09/10 00:54:05;;;;;;;7.78;3.10;;;;;;;15.44;100.00;99096.44;8375058;28;20433;-83
2022/09/10 00:58:10;;;;;;;8.32;4.15;;;;;;;15.47;100.00;99101.22;8382607;28;20040;-80
2022/09/10 01:02:11;;;;;;;6.50;4.28;;;;;;;15.50;100.00;99100.53;8381179;28;20055;-81
2022/09/10 01:06:12;;;;;;;9.43;3.20;;;;;;;15.53;100.00;99105.34;8376606;28;20064;-81
2022/09/10 01:10:22;;;;;;;10.35;2.65;;;;;;;15.51;100.00;99107.59;8379995;28;20149;-82
2022/09/10 01:14:59;;;;;;;4.32;2.30;;;;;;;15.50;100.00;99105.97;8375383;28;20080;-79
2022/09/10 01:19:34;;;;;;;7.05;2.10;;;;;;;15.46;100.00;99099.63;8276489;28;20083;-81
2022/09/10 01:24:02;;;;;;;3.85;2.30;;;;;;;15.47;100.00;99095.78;8292006;28;20042;-80
2022/09/10 01:28:08;;;;;;;4.68;2.53;;;;;;;15.45;100.00;99092.59;8292165;28;20151;-79
2022/09/10 01:32:16;;;;;;;6.43;2.17;;;;;;;15.43;100.00;99084.00;8276230;28;20426;-79
2022/09/10 01:36:20;;;;;;;3.75;1.95;;;;;;;15.43;100.00;99073.09;8275475;28;20049;-80
2022/09/10 01:40:28;;;;;;;8.65;2.60;;;;;;;15.40;100.00;99081.94;8293301;28;20045;-80
2022/09/10 01:44:42;;;;;;;6.13;2.00;;;;;;;15.40;100.00;99072.97;8274029;28;20045;-81
2022/09/10 01:48:59;;;;;;;6.50;2.28;;;;;;;15.36;100.00;99072.88;8293404;28;20080;-80
2022/09/10 01:53:15;;;;;;;7.95;2.00;;;;;;;15.38;100.00;99062.47;8302067;28;20063;-81
2022/09/10 01:57:44;;;;;;;5.47;1.95;;;;;;;15.38;100.00;99059.75;8382007;28;20482;-82
2022/09/10 02:01:49;;;;;;;4.30;1.80;;;;;;;15.40;100.00;99057.44;8375392;28;20048;-81
2022/09/10 02:05:52;;;;;;;3.42;1.70;;;;;;;15.42;100.00;99052.47;8370612;28;20107;-81
2022/09/10 02:09:53;;;;;;;6.20;1.90;;;;;;;15.40;100.00;99052.00;8374548;28;20041;-82
2022/09/10 02:13:54;;;;;;;6.72;1.60;;;;;;;15.41;100.00;99058.25;8371992;28;20089;-81
2022/09/10 02:17:55;;;;;;;2.60;1.67;;;;;;;15.40;100.00;99052.00;8374757;28;20045;-81
2022/09/10 02:21:57;;;;;;;9.45;1.80;;;;;;;15.38;100.00;99054.28;8355552;28;20520;-81
2022/09/10 02:25:58;;;;;;;6.18;1.70;;;;;;;15.39;100.00;99044.97;8372122;28;20036;-82
2022/09/10 02:29:59;;;;;;;5.93;1.88;;;;;;;15.38;100.00;99035.25;8377626;28;20433;-81
2022/09/10 02:34:01;;;;;;;3.53;1.45;;;;;;;15.38;100.00;99032.53;8377493;28;20045;-81
2022/09/10 02:38:04;;;;;;;3.22;1.50;;;;;;;15.35;100.00;99022.31;8375660;28;20057;-81
2022/09/10 02:42:05;;;;;;;5.38;1.70;;;;;;;15.31;100.00;99020.63;8367072;28;20049;-80
2022/09/10 02:46:07;;;;;;;8.23;1.70;;;;;;;15.30;100.00;99008.13;8375273;28;20040;-80
2022/09/10 02:50:08;;;;;;;2.95;1.58;;;;;;;15.25;100.00;99003.72;8371781;28;20127;-80
2022/09/10 02:54:09;;;;;;;3.65;1.40;;;;;;;15.22;100.00;98996.25;8373610;28;20119;-81
2022/09/10 02:58:12;;;;;;;3.25;1.50;;;;;;;15.20;100.00;99003.97;8369374;28;20033;-81
2022/09/10 03:02:13;;;;;;;2.35;1.38;;;;;;;15.19;100.00;98991.50;8383674;28;20057;-81
2022/09/10 03:06:14;;;;;;;2.90;1.33;;;;;;;15.12;100.00;98999.44;8372705;28;20114;-81
2022/09/10 03:10:15;;;;;;;9.10;1.40;;;;;;;15.06;100.00;99000.81;8371289;28;20048;-81
2022/09/10 03:14:19;;;;;;;2.95;1.25;;;;;;;15.08;100.00;99006.69;8388862;28;20053;-81
2022/09/10 03:18:24;;;;;;;3.58;1.05;;;;;;;15.05;100.00;99001.94;8376592;28;20060;-81
2022/09/10 03:22:25;;;;;;;2.40;1.02;;;;;;;15.02;100.00;99010.75;8374528;28;20048;-81
2022/09/10 03:26:26;;;;;;;2.47;1.20;;;;;;;14.98;100.00;99012.56;8372017;28;20098;-81
2022/09/10 03:30:27;;;;;;;2.88;1.00;;;;;;;14.96;100.00;99014.84;8383262;28;20041;-81
2022/09/10 03:34:28;;;;;;;4.85;0.90;;;;;;;14.94;100.00;99007.03;8372931;28;20047;-81
2022/09/10 03:38:29;;;;;;;3.47;0.80;;;;;;;14.93;100.00;99004.63;8356308;28;20451;-81
2022/09/10 03:42:30;;;;;;;4.93;1.17;;;;;;;14.89;100.00;99014.63;8369450;28;20060;-81
2022/09/10 03:46:31;;;;;;;2.47;0.80;;;;;;;14.86;100.00;99015.31;8378504;28;20036;-81
2022/09/10 03:50:32;;;;;;;5.03;1.00;;;;;;;14.84;100.00;99012.13;8372808;28;20052;-81
2022/09/10 03:54:33;;;;;;;1.77;1.00;;;;;;;14.83;100.00;99005.09;8351500;28;20052;-81
2022/09/10 03:58:34;;;;;;;2.35;1.05;;;;;;;14.85;100.00;99013.72;8379861;28;20056;-80
2022/09/10 04:02:35;;;;;;;2.50;1.27;;;;;;;14.85;100.00;99019.16;8379423;28;20041;-80
2022/09/10 04:06:37;;;;;;;2.47;1.40;;;;;;;14.83;100.00;99011.31;8384548;28;20056;-80
2022/09/10 04:10:39;;;;;;;4.47;1.50;;;;;;;14.82;100.00;99008.94;8373257;28;20389;-80
2022/09/10 04:14:42;;;;;;;3.80;1.35;;;;;;;14.82;100.00;99003.50;8376595;28;20048;-81
2022/09/10 04:18:43;;;;;;;5.35;1.73;;;;;;;14.83;100.00;99013.25;8386424;28;20041;-80
2022/09/10 04:22:45;;;;;;;4.72;1.90;;;;;;;14.82;100.00;98998.84;8377391;28;20044;-81
2022/09/10 04:26:46;;;;;;;5.40;2.55;;;;;;;14.82;100.00;98998.06;8379965;28;20080;-80
2022/09/10 04:30:47;;;;;;;5.85;1.90;;;;;;;14.79;100.00;98997.63;8381082;28;20053;-81
2022/09/10 04:34:48;;;;;;;2.85;2.10;;;;;;;14.82;100.00;98998.06;8344388;28;20536;-81
2022/09/10 04:38:49;;;;;;;3.03;2.35;;;;;;;14.86;100.00;98999.00;8377017;28;20037;-80
2022/09/10 04:42:49;;;;;;;10.57;2.53;;;;;;;14.87;100.00;98995.13;8378141;28;20048;-81
2022/09/10 04:46:50;;;;;;;5.68;2.95;;;;;;;14.84;100.00;98990.38;8383688;28;20079;-80
2022/09/10 04:50:51;;;;;;;6.25;2.90;;;;;;;14.83;100.00;98996.94;8376554;28;20052;-80
2022/09/10 04:54:52;;;;;;;4.32;3.13;;;;;;;14.85;100.00;98986.53;8377507;28;20052;-80
2022/09/10 04:58:53;;;;;;;4.38;2.45;;;;;;;14.86;100.00;98988.13;8359788;28;20114;-80
2022/09/10 05:02:54;;;;;;;4.10;2.63;;;;;;;14.84;100.00;98993.88;8380120;28;20049;-80
2022/09/10 05:06:56;;;;;;;3.20;2.60;;;;;;;14.84;100.00;98990.38;8382896;28;20081;-80
2022/09/10 05:10:59;;;;;;;4.10;2.70;;;;;;;14.86;100.00;98993.56;8376250;28;20041;-79
2022/09/10 05:15:02;;;;;;;6.50;2.40;;;;;;;14.85;100.00;99008.28;8380104;28;20127;-79
2022/09/10 05:19:03;;;;;;;7.38;2.58;;;;;;;14.86;100.00;99004.44;8383433;28;20049;-80
2022/09/10 05:23:03;;;;;;;3.67;2.40;;;;;;;14.84;100.00;99001.25;8377666;28;20049;-80
2022/09/10 05:27:04;;;;;;;3.92;2.67;;;;;;;14.80;100.00;99007.34;8367966;28;20048;-79
2022/09/10 05:31:07;;;;;;;3.85;2.15;;;;;;;14.79;100.00;99005.78;8386142;28;20079;-79
2022/09/10 05:35:09;;;;;;;2.80;2.13;;;;;;;14.85;100.00;99013.72;8393289;28;20048;-79
2022/09/10 05:39:09;;;;;;;3.67;1.90;;;;;;;14.86;100.00;99009.88;8385453;28;20060;-79
2022/09/10 05:43:11;;;;;;;2.72;1.95;;;;;;;14.90;100.00;99011.56;8376919;28;20048;-79
2022/09/10 05:47:11;;;;;;;1.65;1.50;;;;;;;14.93;100.00;99004.63;8380739;28;20619;-79
2022/09/10 05:51:12;;;;;;;2.53;1.42;;;;;;;14.94;100.00;99006.22;8378832;28;20098;-79
2022/09/10 05:55:14;;;;;;;2.67;1.40;;;;;;;14.97;100.00;99010.97;8381622;28;20387;-79
2022/09/10 05:59:15;;;;;;;3.33;1.23;;;;;;;15.01;100.00;99001.03;8396262;28;20052;-79
2022/09/10 06:03:16;;;;;;;8.15;1.35;;;;;;;14.99;100.00;99006.00;8375761;28;20052;-79
2022/09/10 06:07:17;;;;;;;2.67;1.33;;;;;;;15.00;100.00;98999.44;8411585;28;20083;-79
2022/09/10 06:11:18;;;;;;;2.03;1.40;;;;;;;15.03;100.00;99004.19;8406079;28;20111;-79
2022/09/10 06:15:20;;;;;;;3.63;1.55;;;;;;;15.11;100.00;99006.00;8391252;28;20036;-78
2022/09/10 06:19:21;;;;;;;7.22;1.75;;;;;;;15.18;100.00;99006.22;8395380;28;20041;-78
2022/09/10 06:23:22;;;;;;;5.22;1.67;;;;;;;15.25;100.00;99006.44;8398228;28;20109;-78
2022/09/10 06:27:22;;;;;;;4.60;1.40;;;;;;;15.34;100.00;99009.84;8387129;28;20076;-78
2022/09/10 06:31:24;;;;;;;8.45;1.65;;;;;;;15.39;99.85;99001.44;8394930;28;20052;-78
2022/09/10 06:35:25;;;;;;;7.55;1.55;;;;;;;15.46;100.00;98985.34;8395320;28;20105;-79
2022/09/10 06:39:27;;;;;;;3.53;2.17;;;;;;;15.53;99.91;98985.59;8394733;28;20052;-79
2022/09/10 06:43:31;;;;;;;3.60;2.80;;;;;;;15.60;99.96;98991.22;8394940;28;20072;-79
2022/09/10 06:47:32;;;;;;;6.63;2.92;;;;;;;15.62;100.00;98999.84;8395305;28;20059;-81
2022/09/10 06:51:33;;;;;;;2.58;2.38;;;;;;;15.68;100.00;99002.31;8395429;28;20457;-80
2022/09/10 06:55:34;;;;;;;12.20;3.75;;;;;;;15.84;99.75;99000.47;8394539;28;20048;-78
2022/09/10 06:59:35;;;;;;;4.03;2.70;;;;;;;15.97;99.37;98999.25;8401568;28;20417;-81
2022/09/10 07:03:36;;;;;;;3.70;2.22;;;;;;;16.08;99.13;98989.44;8409564;28;20384;-79
2022/09/10 07:07:37;;;;;;;5.10;2.10;;;;;;;16.27;99.07;98989.59;8404724;28;20124;-81
2022/09/10 07:11:39;;;;;;;4.13;1.80;;;;;;;16.37;98.61;98986.38;8421873;28;20076;-80
2022/09/10 07:15:47;;;;;;;3.45;1.50;;;;;;;16.45;98.63;98993.56;8415794;28;20077;-81
2022/09/10 07:19:48;;;;;;;;;;;;;;;16.50;98.87;98994.47;8424794;28;20105;-81
2022/09/10 07:23:54;;;;;;;3.65;1.63;;;;;;;16.50;98.34;98994.47;8408205;28;19956;-83
2022/09/10 07:27:55;;;;;;;2.97;1.63;;;;;;;16.53;98.64;98993.78;8410010;28;20184;-81
2022/09/10 07:31:57;;;;;;;3.75;1.77;;;;;;;16.63;98.84;98988.63;8417474;28;20070;-81
2022/09/10 07:35:59;;;;;;;4.32;1.70;;;;;;;16.64;98.41;99005.78;8420416;28;20135;-82
2022/09/10 07:40:00;;;;;;;2.67;1.80;;;;;;;16.70;97.56;98998.91;8401615;28;20036;-85
2022/09/10 07:44:01;;;;;;;2.70;1.83;;;;;;;16.81;97.47;99005.44;8406829;28;20060;-83
2022/09/10 07:48:02;;;;;;;4.55;2.10;;;;;;;17.00;96.49;99005.50;8419381;28;20082;-82
2022/09/10 07:52:04;;;;;;;2.63;1.90;;;;;;;17.08;96.06;99012.69;8406966;28;20052;-82
2022/09/10 07:56:06;;;;;;;2.42;1.77;;;;;;;17.05;96.33;99010.69;8420133;28;20075;-81
2022/09/10 08:00:13;;;;;;;8.65;2.38;;;;;;;17.05;96.40;99015.34;8420323;28;20138;-83
2022/09/10 08:04:15;;;;;;;5.88;2.10;;;;;;;17.06;96.27;99008.75;8415596;28;20480;-82
2022/09/10 08:08:16;;;;;;;3.20;1.60;;;;;;;17.14;95.72;99013.22;8420118;28;20079;-80
2022/09/10 08:12:17;;;;;;;5.20;1.85;;;;;;;17.21;95.37;99019.66;8410249;28;20412;-80
2022/09/10 08:16:22;;;;;;;2.88;1.80;;;;;;;17.19;95.47;99021.94;8427521;28;20139;-82
2022/09/10 08:20:24;;;;;;;3.97;1.88;;;;;;;17.21;95.33;99018.84;8433752;28;20051;-82
2022/09/10 08:24:27;;;;;;;2.53;1.90;;;;;;;17.24;94.85;99021.66;8429509;28;20048;-80
2022/09/10 08:28:28;;;;;;;4.75;1.88;;;;;;;17.30;94.56;99012.06;8423356;28;20465;-80
2022/09/10 08:32:29;;;;;;;3.03;1.42;;;;;;;17.25;94.50;99017.78;8421037;28;20048;-80
2022/09/10 08:36:30;;;;;;;3.17;1.73;;;;;;;17.24;94.57;99024.38;8433373;28;20054;-80
2022/09/10 08:40:32;;;;;;;3.10;1.65;;;;;;;17.39;94.33;99019.28;8432827;28;20152;-82
2022/09/10 08:44:51;;;;;;;4.50;2.08;;;;;;;17.69;93.21;99006.72;8418041;28;20048;-80
2022/09/10 08:49:18;;;;;;;3.97;1.90;;;;;;;17.88;92.50;99014.91;8433248;28;20052;-80
2022/09/10 08:53:43;;;;;;;4.22;1.92;;;;;;;17.90;92.89;99018.06;8391261;28;20047;-80
2022/09/10 08:57:47;;;;;;;2.40;2.00;;;;;;;18.06;91.92;99013.34;8417915;28;20040;-80
2022/09/10 09:02:03;;;;;;;2.92;1.83;;;;;;;18.00;90.95;99012.03;8403665;28;20044;-80
2022/09/10 09:06:07;;;;;;;4.13;2.42;;;;;;;18.09;89.91;99012.59;8431305;28;20052;-79
2022/09/10 09:10:30;;;;;;;4.95;2.00;;;;;;;18.27;89.34;99009.44;8432351;28;20105;-80
2022/09/10 09:14:32;;;;;;;4.72;2.20;;;;;;;18.21;89.58;98999.94;8408804;28;20406;-80
2022/09/10 09:18:53;;;;;;;4.93;2.10;;;;;;;18.05;89.86;99003.56;8418984;28;20048;-80
2022/09/10 09:23:22;;;;;;;3.53;2.42;;;;;;;17.91;90.09;99003.28;8272182;28;20034;-79
2022/09/10 09:27:26;;;;;;;3.47;2.25;;;;;;;18.11;90.43;99004.84;8251534;28;20050;-79
2022/09/10 09:31:31;;;;;;;11.10;2.20;;;;;;;18.58;89.70;98998.31;8251770;28;20054;-80
2022/09/10 09:35:43;;;;;;;7.28;2.50;;;;;;;18.85;88.06;98997.22;8249525;28;20472;-79
2022/09/10 09:39:51;;;;;;;5.18;2.30;;;;;;;18.74;88.21;98996.25;8249478;28;20046;-80
2022/09/10 09:44:21;;;;;;;2.63;2.10;;;;;;;18.54;87.88;99002.94;8246886;28;20141;-80
2022/09/10 09:48:23;;;;;;;9.50;2.30;;;;;;;18.34;87.83;98993.16;8155172;29;20299;-82
2022/09/10 09:52:25;;;;;;;3.55;2.33;;;;;;;18.31;87.02;99005.59;8156285;29;20060;-81
2022/09/10 09:56:30;;;;;;;4.20;2.15;;;;;;;18.28;86.91;99005.56;8126819;29;20442;-79
2022/09/10 10:00:35;;;;;;;5.07;2.10;;;;;;;18.32;86.80;99000.94;8220900;28;20078;-81
2022/09/10 10:04:36;;;;;;;4.30;2.03;;;;;;;18.23;86.15;98992.19;8312904;28;20042;-80
2022/09/10 10:08:54;;;;;;;5.28;1.60;;;;;;;18.11;87.21;98995.84;8327250;28;20056;-79
2022/09/10 10:12:55;;;;;;;3.97;2.15;;;;;;;17.90;87.72;99001.69;8335847;28;20146;-81
2022/09/10 10:16:59;;;;;;;4.43;1.85;;;;;;;17.89;88.43;98989.16;8344833;28;20129;-80
2022/09/10 10:21:11;;;;;;;3.15;2.08;;;;;;;17.89;88.79;98983.72;8313042;28;20068;-81
2022/09/10 10:25:32;;;;;;;3.83;1.80;;;;;;;17.95;88.47;98985.00;8373582;28;20079;-80
2022/09/10 10:29:34;;;;;;;5.32;2.25;;;;;;;18.17;88.52;98977.22;8392521;28;20041;-81
2022/09/10 10:33:36;;;;;;;6.15;2.15;;;;;;;18.61;86.61;98970.25;8395969;28;20044;-82
2022/09/10 10:38:21;;;;;;;4.65;2.10;;;;;;;19.26;84.18;98961.88;8394110;28;20048;-81
2022/09/10 10:43:00;;;;;;;4.13;2.00;;;;;;;19.93;81.71;98951.03;8324866;28;20049;-79
2022/09/10 10:47:17;;;;;;;6.53;2.00;;;;;;;19.81;81.19;98944.66;8256013;28;20093;-84
2022/09/10 10:51:36;;;;;;;3.13;2.13;;;;;;;19.45;82.09;98959.06;8242064;28;20058;-80
2022/09/10 10:55:44;;;;;;;6.10;1.83;;;;;;;19.21;82.20;98960.25;8264271;28;20065;-81
2022/09/10 11:00:14;;;;;;;6.63;2.15;;;;;;;19.16;83.84;98954.28;8260327;28;20046;-80
2022/09/10 11:04:41;;;;;;;3.60;2.13;;;;;;;19.30;83.77;98963.50;8260048;28;20050;-82
2022/09/10 11:08:56;;;;;;;5.60;1.92;;;;;;;19.36;82.93;98961.22;8268834;28;20046;-81
2022/09/10 11:13:21;;;;;;;4.15;2.08;;;;;;;19.37;82.54;98968.28;8281404;28;20053;-81
2022/09/10 11:17:38;;;;;;;3.15;1.80;;;;;;;19.42;82.81;98951.53;8348826;28;20424;-81
2022/09/10 11:21:57;;;;;;;3.85;1.63;;;;;;;19.45;82.30;98953.56;8414574;28;20044;-80
2022/09/10 11:26:11;;;;;;;5.40;1.77;;;;;;;19.46;80.98;98949.66;8399914;28;20477;-82
2022/09/10 11:30:16;;;;;;;4.43;1.55;;;;;;;19.50;79.92;98939.56;8399497;28;20048;-82
2022/09/10 11:34:37;;;;;;;2.40;1.60;;;;;;;19.56;79.82;98943.56;8426364;28;20401;-82
2022/09/10 11:39:06;;;;;;;4.35;1.60;;;;;;;19.53;79.57;98938.81;8419222;28;20389;-82
2022/09/10 11:43:22;;;;;;;6.35;2.03;;;;;;;19.79;79.04;98930.50;8400501;28;20092;-82
2022/09/10 11:47:32;;;;;;;5.05;1.95;;;;;;;20.12;78.21;98931.66;8388640;28;20105;-80
2022/09/10 11:51:38;;;;;;;6.88;2.00;;;;;;;20.38;76.36;98920.59;8391304;28;20101;-80
2022/09/10 11:55:45;;;;;;;2.67;1.67;;;;;;;20.37;76.42;98927.22;8406837;28;20055;-80
2022/09/10 11:59:56;;;;;;;7.78;2.10;;;;;;;20.33;77.06;98925.63;8425447;28;20044;-82
2022/09/10 12:04:34;;;;;;;3.92;1.80;;;;;;;20.56;76.52;98924.28;8406806;28;20047;-83
2022/09/10 12:09:01;;;;;;;5.85;1.83;;;;;;;20.27;76.19;98916.91;8401520;28;20119;-80
2022/09/10 12:13:08;;;;;;;4.55;1.63;;;;;;;20.14;75.54;98908.19;8424230;28;20032;-81
2022/09/10 12:17:13;;;;;;;4.32;1.60;;;;;;;20.35;75.12;98907.63;8364154;28;20097;-81
2022/09/10 12:21:36;;;;;;;4.03;1.90;;;;;;;20.76;74.15;98899.34;8405865;28;20052;-80
2022/09/10 12:25:37;;;;;;;6.43;1.88;;;;;;;20.80;72.44;98900.16;8399768;28;20131;-81
2022/09/10 12:29:42;;;;;;;6.03;1.80;;;;;;;20.59;72.38;98896.06;8376554;28;20041;-81
2022/09/10 12:33:42;;;;;;;6.07;1.70;;;;;;;20.67;73.55;98903.19;8337763;28;20037;-82
2022/09/10 12:37:43;;;;;;;7.13;1.83;;;;;;;20.88;73.14;98902.56;8346471;28;20569;-82
2022/09/10 12:41:44;;;;;;;3.97;1.70;;;;;;;21.17;72.90;98894.53;8362549;28;20052;-82
2022/09/10 12:46:17;;;;;;;5.05;1.95;;;;;;;21.28;71.29;98893.41;8362422;28;20059;-81
2022/09/10 12:50:22;;;;;;;5.40;1.92;;;;;;;21.39;71.02;98894.25;8364128;28;20111;-80
2022/09/10 12:54:36;;;;;;;5.05;1.80;;;;;;;21.49;69.96;98888.03;8345231;28;20052;-79
2022/09/10 12:58:53;;;;;;;4.45;1.70;;;;;;;21.45;70.39;98887.22;8367522;28;20433;-82
2022/09/10 13:03:07;;;;;;;5.85;1.75;;;;;;;21.68;70.73;98886.13;8408405;28;20055;-83
2022/09/10 13:07:40;;;;;;;4.40;1.80;;;;;;;21.68;68.04;98877.91;8423433;28;20054;-81
2022/09/10 13:11:44;;;;;;;8.32;2.05;;;;;;;21.64;68.66;98883.38;8412189;28;20056;-82
2022/09/10 13:15:50;;;;;;;7.57;2.20;;;;;;;21.37;67.69;98879.31;8399465;28;20040;-80
2022/09/10 13:19:52;;;;;;;3.47;2.35;;;;;;;20.97;68.92;98872.03;8421152;28;20040;-81
2022/09/10 13:23:54;;;;;;;5.20;1.90;;;;;;;20.81;69.75;98868.78;8426731;28;20043;-81
2022/09/10 13:27:55;;;;;;;5.90;1.90;;;;;;;20.37;71.84;98872.38;8421241;28;20051;-82
2022/09/10 13:32:03;;;;;;;5.38;2.25;;;;;;;20.00;73.18;98868.88;8432004;28;20495;-81
2022/09/10 13:36:41;;;;;;;7.72;2.70;;;;;;;19.94;73.93;98859.41;8416338;28;20122;-83
2022/09/10 13:41:20;;;;;;;3.97;2.15;;;;;;;20.36;74.00;98870.78;8430023;28;20055;-84
2022/09/10 13:45:26;;;;;;;4.32;2.63;;;;;;;20.34;73.79;98864.91;8295427;28;20054;-84
2022/09/10 13:49:48;;;;;;;6.03;2.30;;;;;;;20.00;74.93;98863.38;8303863;28;20404;-81
2022/09/10 13:53:50;;;;;;;3.53;2.42;;;;;;;19.75;75.96;98869.41;8318720;28;20061;-82
2022/09/10 13:57:54;;;;;;;6.40;2.70;;;;;;;19.56;76.50;98872.34;8305999;28;20128;-82
2022/09/10 14:01:57;;;;;;;4.32;2.75;;;;;;;19.45;77.03;98865.16;8281108;28;20045;-82
2022/09/10 14:06:03;;;;;;;5.18;2.88;;;;;;;19.59;77.29;98855.16;8321799;28;20470;-83
2022/09/10 14:10:05;;;;;;;7.35;2.50;;;;;;;20.02;76.35;98852.84;8312356;28;20144;-82
2022/09/10 14:14:29;;;;;;;3.83;2.25;;;;;;;20.15;75.74;98859.63;8313817;28;20073;-82
2022/09/10 14:18:43;;;;;;;3.45;2.35;;;;;;;19.89;76.45;98854.28;8277343;28;20104;-81
2022/09/10 14:22:44;;;;;;;8.13;2.70;;;;;;;19.70;77.24;98845.09;8397640;28;20615;-83
2022/09/10 14:27:23;;;;;;;2.67;2.38;;;;;;;19.44;78.36;98842.41;8399214;28;20044;-82
2022/09/10 14:31:23;;;;;;;4.60;2.60;;;;;;;19.26;79.06;98841.41;8397791;28;21003;-82
2022/09/10 14:35:43;;;;;;;3.72;2.70;;;;;;;19.20;79.41;98845.63;8402124;28;20056;-82
2022/09/10 14:39:44;;;;;;;6.35;2.80;;;;;;;19.17;79.72;98849.13;8332323;28;20095;-82
2022/09/10 14:43:45;;;;;;;11.93;4.32;;;;;;;19.11;80.24;98858.81;8319120;28;20441;-81
2022/09/10 14:47:52;;;;;;;9.57;3.90;;;;;;;19.05;80.75;98868.50;8340013;28;20064;-82
2022/09/10 14:51:55;;;;;;;23.30;6.65;;;;;;;19.03;81.67;98876.31;8339746;28;20049;-82
2022/09/10 14:55:56;;;;;;;20.00;5.88;;;;;;;18.96;82.09;98861.38;8275325;28;20088;-82
2022/09/10 14:59:58;;;;;;;17.02;6.15;;;;;;;18.90;82.69;98856.56;8315285;28;20474;-81
2022/09/10 15:03:59;;;;;;;6.65;4.05;;;;;;;18.81;83.33;98859.59;8322842;28;20186;-82
2022/09/10 15:08:01;;;;;;;7.78;3.08;;;;;;;18.75;83.77;98872.00;8353434;28;20536;-82
2022/09/10 15:12:23;;;;;;;11.88;4.10;;;;;;;18.77;84.13;98871.66;8412870;28;20452;-82
2022/09/10 15:16:24;;;;;;;5.88;3.42;;;;;;;18.81;84.21;98875.22;8408382;28;20036;-82
2022/09/10 15:20:25;;;;;;;4.03;3.28;;;;;;;18.80;84.26;98879.91;8395843;28;20040;-81
2022/09/10 15:24:27;;;;;;;3.88;2.97;;;;;;;18.86;84.08;98867.47;8405612;28;20044;-80
2022/09/10 15:28:28;;;;;;;4.85;2.97;;;;;;;18.90;83.96;98873.78;8399466;28;20056;-82
2022/09/10 15:32:29;;;;;;;4.32;3.08;;;;;;;18.88;84.52;98881.56;8408348;28;20052;-81
2022/09/10 15:36:30;;;;;;;4.53;3.30;;;;;;;18.88;84.88;98870.63;8403965;28;20037;-80
2022/09/10 15:40:34;;;;;;;5.13;2.97;;;;;;;18.74;85.48;98873.16;8390941;28;20551;-79
2022/09/10 15:44:38;;;;;;;3.47;3.05;;;;;;;18.66;85.95;98862.50;8408799;28;20118;-80
2022/09/10 15:48:39;;;;;;;4.72;3.25;;;;;;;18.59;86.40;98874.09;8397980;28;20110;-81
2022/09/10 15:52:40;;;;;;;4.07;3.38;;;;;;;18.54;86.84;98877.16;8415451;28;20114;-80
2022/09/10 15:56:41;;;;;;;6.30;3.38;;;;;;;18.50;87.24;98870.81;8416534;28;20089;-80
2022/09/10 16:00:42;;;;;;;7.75;4.28;;;;;;;18.41;87.46;98883.91;8418957;28;20097;-81
2022/09/10 16:04:43;;;;;;;10.90;6.85;;;;;;;18.30;87.81;98880.22;8408448;28;20048;-81
2022/09/10 16:08:55;;;;;;;16.48;7.82;;;;;;;18.19;88.00;98876.53;8431357;28;20067;-79
2022/09/10 16:12:56;;;;;;;19.50;7.93;;;;;;;18.06;87.97;98879.44;8365443;28;20127;-81
2022/09/10 16:16:57;;;;;;;14.77;7.18;;;;;;;17.98;88.04;98876.91;8414220;28;20049;-80
2022/09/10 16:21:06;;;;;;;13.90;7.07;;;;;;;17.87;88.52;98871.25;8393700;28;20032;-79
2022/09/10 16:25:07;;;;;;;12.93;6.70;;;;;;;17.80;89.29;98871.16;8406492;28;20049;-80
2022/09/10 16:29:13;;;;;;;13.55;6.53;;;;;;;17.72;89.72;98881.13;8413848;28;20105;-81
2022/09/10 16:33:14;;;;;;;10.73;6.70;;;;;;;17.65;90.37;98880.22;8409841;28;20056;-81
2022/09/10 16:37:16;;;;;;;11.27;6.28;;;;;;;17.60;90.67;98894.97;8412512;28;20051;-81
2022/09/10 16:41:16;;;;;;;10.93;5.85;;;;;;;17.54;91.46;98895.56;8413438;28;20463;-81
2022/09/10 16:45:18;;;;;;;8.95;5.53;;;;;;;17.49;92.04;98914.97;8381502;28;20078;-81
2022/09/10 16:49:18;;;;;;;6.93;5.43;;;;;;;17.46;92.06;98910.22;8405677;28;20049;-82
2022/09/10 16:53:20;;;;;;;8.23;5.78;;;;;;;17.38;92.62;98908.50;8395029;28;20036;-82
2022/09/10 16:57:21;;;;;;;8.77;5.35;;;;;;;17.34;92.77;98913.09;8402219;28;20056;-81
2022/09/10 17:01:22;;;;;;;11.20;6.50;;;;;;;17.29;93.31;98912.22;8400514;28;20139;-81
2022/09/10 17:05:24;;;;;;;7.43;5.15;;;;;;;17.27;93.53;98903.59;8414327;28;20078;-81
2022/09/10 17:09:25;;;;;;;13.10;5.00;;;;;;;17.25;93.60;98900.44;8403546;28;20048;-81
2022/09/10 17:13:26;;;;;;;5.47;4.63;;;;;;;17.21;93.76;98896.84;8401852;28;20481;-81
2022/09/10 17:17:27;;;;;;;9.23;4.55;;;;;;;17.17;93.98;98897.94;8405436;28;20052;-81
2022/09/10 17:21:30;;;;;;;12.25;6.63;;;;;;;17.09;94.15;98901.63;8398147;28;20088;-81
2022/09/10 17:25:31;;;;;;;7.75;5.47;;;;;;;17.03;94.35;98903.84;8402483;28;20065;-81
2022/09/10 17:29:32;;;;;;;10.23;6.32;;;;;;;16.97;94.56;98910.75;8406243;28;20490;-82
2022/09/10 17:33:33;;;;;;;15.27;7.72;;;;;;;16.91;94.73;98912.16;8398267;28;20436;-81
2022/09/10 17:37:35;;;;;;;16.35;7.75;;;;;;;16.87;95.22;98905.81;8395500;28;20101;-81
2022/09/10 17:41:38;;;;;;;23.67;8.90;;;;;;;16.82;95.31;98919.72;8394102;28;20055;-82
2022/09/10 17:45:39;;;;;;;20.40;8.68;;;;;;;16.82;95.26;98915.06;8396974;28;20067;-82
2022/09/10 17:49:42;;;;;;;46.70;14.77;;;;;;;16.79;95.26;98909.53;8389550;28;20653;-81
2022/09/10 17:53:43;;;;;;;55.42;15.50;;;;;;;16.77;95.30;98906.34;8392916;28;20106;-81
2022/09/10 17:57:44;;;;;;;36.10;12.73;;;;;;;16.73;95.61;98916.41;8394635;28;20131;-81
2022/09/10 18:01:45;;;;;;;36.28;12.10;;;;;;;16.72;95.47;98925.72;8395161;28;20055;-82
2022/09/10 18:05:46;;;;;;;23.15;9.60;;;;;;;16.68;95.64;98924.84;8430047;28;20083;-81
2022/09/10 18:09:47;;;;;;;19.33;8.57;;;;;;;16.65;95.68;98925.56;8430688;28;20055;-81
2022/09/10 18:13:50;;;;;;;19.35;8.68;;;;;;;16.61;95.88;98930.91;8412138;28;20093;-81
2022/09/10 18:17:53;;;;;;;15.50;8.18;;;;;;;16.57;96.17;98924.56;8389432;28;20377;-82
2022/09/10 18:21:54;;;;;;;13.95;7.45;;;;;;;16.56;96.47;98933.09;8392352;28;20493;-81
2022/09/10 18:25:55;;;;;;;16.80;7.88;;;;;;;16.57;96.45;98934.66;8390960;28;20048;-81
2022/09/10 18:29:56;;;;;;;15.70;7.15;;;;;;;16.56;96.44;98927.63;8365825;28;20055;-83
2022/09/10 18:33:59;;;;;;;13.93;6.72;;;;;;;16.48;96.58;98922.03;8381081;28;20138;-82
2022/09/10 18:38:01;;;;;;;13.77;8.45;;;;;;;16.44;96.82;98921.13;8373348;28;20044;-81
2022/09/10 18:42:02;;;;;;;20.92;8.35;;;;;;;16.41;96.88;98916.38;8372537;28;20174;-81
2022/09/10 18:46:04;;;;;;;10.35;6.75;;;;;;;16.38;97.32;98911.66;8383988;28;20375;-81
2022/09/10 18:50:05;;;;;;;13.68;7.85;;;;;;;16.33;97.31;98909.19;8389827;28;20056;-81
2022/09/10 18:54:08;;;;;;;9.07;6.68;;;;;;;16.29;97.50;98919.19;8394803;28;20052;-82
2022/09/10 18:58:09;;;;;;;10.30;6.50;;;;;;;16.31;97.74;98937.91;8375624;28;20072;-82
2022/09/10 19:02:11;;;;;;;8.95;6.05;;;;;;;16.30;97.99;98936.31;8404261;28;20044;-83
2022/09/10 19:06:16;;;;;;;10.85;6.85;;;;;;;16.31;97.74;98933.25;8414675;28;20500;-82
2022/09/10 19:10:18;;;;;;;14.32;6.97;;;;;;;16.26;97.74;98930.78;8398537;28;20490;-82